sensor_id;sensor_type;location;lat;lon;timestamp;pressure;altitude;pressure_sealevel;temperature;humidity
54270;BME280;40181;51.560;13.000;2023-03-11T00:00:47;98083.78;;;1.98;100.00
54270;BME280;40181;51.560;13.000;2023-03-11T00:03:19;98085.34;;;1.78;100.00
54270;BME280;40181;51.560;13.000;2023-03-11T00:05:54;98099.16;;;1.77;100.00
54270;BME280;40181;51.560;13.000;2023-03-11T00:08:23;98109.63;;;1.91;100.00
54270;BME280;40181;51.560;13.000;2023-03-11T00:10:53;98111.22;;;1.78;100.00
54270;BME280;40181;51.560;13.000;2023-03-11T00:13:24;98126.97;;;2.00;100.00
54270;BME280;40181;51.560;13.000;2023-03-11T00:15:54;98159.50;;;1.75;100.00
54270;BME280;40181;51.560;13.000;2023-03-11T00:18:24;98169.94;;;1.81;100.00
54270;BME280;40181;51.560;13.000;2023-03-11T00:20:58;98187.97;;;1.72;100.00
54270;BME280;40181;51.560;13.000;2023-03-11T00:23:27;98201.06;;;1.86;100.00
54270;BME280;40181;51.560;13.000;2023-03-11T00:25:56;98219.09;;;1.78;100.00
54270;BME280;40181;51.560;13.000;2023-03-11T00:28:27;98241.53;;;1.76;100.00
54270;BME280;40181;51.560;13.000;2023-03-11T00:30:56;98238.56;;;1.45;100.00
54270;BME280;40181;51.560;13.000;2023-03-11T00:33:25;98251.56;;;1.51;100.00
54270;BME280;40181;51.560;13.000;2023-03-11T00:35:53;98275.53;;;1.36;100.00
54270;BME280;40181;51.560;13.000;2023-03-11T00:38:25;98286.06;;;1.50;100.00
54270;BME280;40181;51.560;13.000;2023-03-11T00:40:54;98284.81;;;1.21;100.00
54270;BME280;40181;51.560;13.000;2023-03-11T00:43:25;98308.66;;;1.03;100.00
54270;BME280;40181;51.560;13.000;2023-03-11T00:45:54;98297.84;;;1.29;100.00
54270;BME280;40181;51.560;13.000;2023-03-11T00:48:25;98312.44;;;1.24;100.00
54270;BME280;40181;51.560;13.000;2023-03-11T00:50:54;98323.72;;;1.29;100.00
54270;BME280;40181;51.560;13.000;2023-03-11T00:53:26;98331.78;;;0.94;100.00
54270;BME280;40181;51.560;13.000;2023-03-11T00:55:55;98335.38;;;1.02;100.00
54270;BME280;40181;51.560;13.000;2023-03-11T00:58:25;98344.88;;;1.02;100.00
54270;BME280;40181;51.560;13.000;2023-03-11T01:00:54;98368.00;;;0.92;100.00
54270;BME280;40181;51.560;13.000;2023-03-11T01:03:23;98369.00;;;1.01;100.00
54270;BME280;40181;51.560;13.000;2023-03-11T01:05:52;98372.47;;;1.03;100.00
54270;BME280;40181;51.560;13.000;2023-03-11T01:08:21;98380.19;;;1.01;100.00
54270;BME280;40181;51.560;13.000;2023-03-11T01:10:53;98381.03;;;1.00;100.00
54270;BME280;40181;51.560;13.000;2023-03-11T01:13:22;98396.31;;;0.86;100.00
54270;BME280;40181;51.560;13.000;2023-03-11T01:15:51;98411.94;;;0.94;100.00
54270;BME280;40181;51.560;13.000;2023-03-11T01:18:20;98398.84;;;0.83;100.00
54270;BME280;40181;51.560;13.000;2023-03-11T01:20:50;98414.13;;;0.69;100.00
54270;BME280;40181;51.560;13.000;2023-03-11T01:23:19;98423.09;;;0.90;100.00
54270;BME280;40181;51.560;13.000;2023-03-11T01:25:49;98427.81;;;0.65;100.00
54270;BME280;40181;51.560;13.000;2023-03-11T01:28:20;98444.94;;;0.60;100.00
54270;BME280;40181;51.560;13.000;2023-03-11T01:30:51;98452.72;;;0.61;100.00
54270;BME280;40181;51.560;13.000;2023-03-11T01:33:20;98459.78;;;0.72;100.00
54270;BME280;40181;51.560;13.000;2023-03-11T01:35:49;98471.69;;;0.62;100.00
54270;BME280;40181;51.560;13.000;2023-03-11T01:38:18;98461.97;;;0.50;100.00
54270;BME280;40181;51.560;13.000;2023-03-11T01:40:48;98474.19;;;0.57;100.00
54270;BME280;40181;51.560;13.000;2023-03-11T01:46:18;98488.69;;;0.52;100.00
54270;BME280;40181;51.560;13.000;2023-03-11T01:48:49;98511.09;;;0.51;100.00
54270;BME280;40181;51.560;13.000;2023-03-11T01:51:20;98504.38;;;0.60;100.00
54270;BME280;40181;51.560;13.000;2023-03-11T01:53:52;98518.09;;;0.57;100.00
54270;BME280;40181;51.560;13.000;2023-03-11T01:56:24;98524.50;;;0.33;100.00
54270;BME280;40181;51.560;13.000;2023-03-11T01:58:56;98536.59;;;0.36;100.00
54270;BME280;40181;51.560;13.000;2023-03-11T02:01:25;98537.66;;;0.44;100.00
54270;BME280;40181;51.560;13.000;2023-03-11T02:03:54;98552.19;;;0.40;100.00
54270;BME280;40181;51.560;13.000;2023-03-11T02:06:24;98560.78;;;0.39;100.00
54270;BME280;40181;51.560;13.000;2023-03-11T02:08:53;98564.31;;;0.43;100.00
54270;BME280;40181;51.560;13.000;2023-03-11T02:11:23;98576.00;;;0.27;100.00
54270;BME280;40181;51.560;13.000;2023-03-11T02:13:58;98593.69;;;0.47;100.00
54270;BME280;40181;51.560;13.000;2023-03-11T02:16:29;98599.22;;;0.25;100.00
54270;BME280;40181;51.560;13.000;2023-03-11T02:18:59;98611.03;;;0.16;100.00
54270;BME280;40181;51.560;13.000;2023-03-11T02:21:34;98606.03;;;0.22;100.00
54270;BME280;40181;51.560;13.000;2023-03-11T02:24:04;98624.09;;;0.22;100.00
54270;BME280;40181;51.560;13.000;2023-03-11T02:26:38;98639.03;;;0.34;100.00
54270;BME280;40181;51.560;13.000;2023-03-11T02:29:16;98632.13;;;0.33;100.00
54270;BME280;40181;51.560;13.000;2023-03-11T02:31:46;98655.88;;;0.19;100.00
54270;BME280;40181;51.560;13.000;2023-03-11T02:34:18;98660.47;;;0.31;100.00
54270;BME280;40181;51.560;13.000;2023-03-11T02:36:50;98667.13;;;0.21;100.00
54270;BME280;40181;51.560;13.000;2023-03-11T02:39:27;98670.47;;;0.17;100.00
54270;BME280;40181;51.560;13.000;2023-03-11T02:42:01;98694.56;;;0.16;100.00
54270;BME280;40181;51.560;13.000;2023-03-11T02:44:32;98700.06;;;0.30;100.00
54270;BME280;40181;51.560;13.000;2023-03-11T02:47:02;98722.06;;;0.14;100.00
54270;BME280;40181;51.560;13.000;2023-03-11T02:49:31;98719.47;;;0.14;100.00
54270;BME280;40181;51.560;13.000;2023-03-11T02:52:00;98744.72;;;0.26;100.00
54270;BME280;40181;51.560;13.000;2023-03-11T02:54:29;98750.66;;;0.22;100.00
54270;BME280;40181;51.560;13.000;2023-03-11T02:57:01;98771.13;;;0.14;100.00
54270;BME280;40181;51.560;13.000;2023-03-11T02:59:30;98771.16;;;0.16;100.00
54270;BME280;40181;51.560;13.000;2023-03-11T03:01:59;98771.31;;;0.22;100.00
54270;BME280;40181;51.560;13.000;2023-03-11T03:04:28;98781.72;;;0.25;100.00
54270;BME280;40181;51.560;13.000;2023-03-11T03:06:59;98794.19;;;0.08;100.00
54270;BME280;40181;51.560;13.000;2023-03-11T03:09:28;98807.19;;;0.11;100.00
54270;BME280;40181;51.560;13.000;2023-03-11T03:11:59;98802.91;;;0.13;100.00
54270;BME280;40181;51.560;13.000;2023-03-11T03:14:31;98831.50;;;0.19;100.00
54270;BME280;40181;51.560;13.000;2023-03-11T03:17:00;98845.06;;;0.12;100.00
54270;BME280;40181;51.560;13.000;2023-03-11T03:19:29;98848.50;;;0.11;100.00
54270;BME280;40181;51.560;13.000;2023-03-11T03:21:58;98843.31;;;0.09;100.00
54270;BME280;40181;51.560;13.000;2023-03-11T03:24:27;98848.47;;;0.09;100.00
54270;BME280;40181;51.560;13.000;2023-03-11T03:26:56;98867.00;;;0.26;100.00
54270;BME280;40181;51.560;13.000;2023-03-11T03:29:28;98874.25;;;0.08;100.00
54270;BME280;40181;51.560;13.000;2023-03-11T03:31:56;98879.47;;;0.11;100.00
54270;BME280;40181;51.560;13.000;2023-03-11T03:34:25;98882.91;;;0.10;100.00
54270;BME280;40181;51.560;13.000;2023-03-11T03:36:54;98901.22;;;0.19;100.00
54270;BME280;40181;51.560;13.000;2023-03-11T03:39:23;98900.38;;;0.19;100.00
54270;BME280;40181;51.560;13.000;2023-03-11T03:41:52;98918.34;;;0.16;100.00
54270;BME280;40181;51.560;13.000;2023-03-11T03:44:21;98939.13;;;0.19;100.00
54270;BME280;40181;51.560;13.000;2023-03-11T03:46:53;98943.97;;;0.08;100.00
54270;BME280;40181;51.560;13.000;2023-03-11T03:49:22;98946.72;;;0.14;100.00
54270;BME280;40181;51.560;13.000;2023-03-11T03:51:50;98951.69;;;0.08;100.00
54270;BME280;40181;51.560;13.000;2023-03-11T03:54:19;98967.47;;;0.17;100.00
54270;BME280;40181;51.560;13.000;2023-03-11T03:56:48;98963.78;;;0.09;100.00
54270;BME280;40181;51.560;13.000;2023-03-11T03:59:17;98974.56;;;0.24;100.00
54270;BME280;40181;51.560;13.000;2023-03-11T04:01:46;98982.53;;;0.32;100.00
54270;BME280;40181;51.560;13.000;2023-03-11T04:04:18;99001.38;;;0.28;100.00
54270;BME280;40181;51.560;13.000;2023-03-11T04:06:46;99001.38;;;0.28;100.00
54270;BME280;40181;51.560;13.000;2023-03-11T04:09:15;99012.38;;;0.22;100.00
54270;BME280;40181;51.560;13.000;2023-03-11T04:11:44;99022.47;;;0.15;100.00
54270;BME280;40181;51.560;13.000;2023-03-11T04:14:13;99019.97;;;0.18;100.00
54270;BME280;40181;51.560;13.000;2023-03-11T04:16:42;99029.91;;;0.33;100.00
54270;BME280;40181;51.560;13.000;2023-03-11T04:19:11;99033.09;;;0.24;100.00
54270;BME280;40181;51.560;13.000;2023-03-11T04:21:43;99027.56;;;0.11;100.00
54270;BME280;40181;51.560;13.000;2023-03-11T04:24:12;99036.16;;;0.10;100.00
54270;BME280;40181;51.560;13.000;2023-03-11T04:26:41;99050.19;;;0.20;100.00
54270;BME280;40181;51.560;13.000;2023-03-11T04:29:10;99058.91;;;0.24;100.00
54270;BME280;40181;51.560;13.000;2023-03-11T04:31:39;99061.38;;;0.19;100.00
54270;BME280;40181;51.560;13.000;2023-03-11T04:34:08;99071.88;;;0.25;100.00
54270;BME280;40181;51.560;13.000;2023-03-11T04:36:37;99077.53;;;0.13;100.00
54270;BME280;40181;51.560;13.000;2023-03-11T04:39:09;99067.97;;;0.09;100.00
54270;BME280;40181;51.560;13.000;2023-03-11T04:41:38;99088.66;;;0.11;100.00
54270;BME280;40181;51.560;13.000;2023-03-11T04:44:07;99086.13;;;0.12;100.00
54270;BME280;40181;51.560;13.000;2023-03-11T04:46:36;99099.19;;;0.17;100.00
54270;BME280;40181;51.560;13.000;2023-03-11T04:49:04;99099.13;;;0.16;100.00
54270;BME280;40181;51.560;13.000;2023-03-11T04:51:34;99099.91;;;0.13;100.00
54270;BME280;40181;51.560;13.000;2023-03-11T04:54:02;99120.63;;;0.15;100.00
54270;BME280;40181;51.560;13.000;2023-03-11T04:56:34;99127.66;;;0.19;100.00
54270;BME280;40181;51.560;13.000;2023-03-11T04:59:03;99131.53;;;0.06;100.00
54270;BME280;40181;51.560;13.000;2023-03-11T05:01:32;99132.69;;;0.16;100.00
54270;BME280;40181;51.560;13.000;2023-03-11T05:04:01;99144.09;;;-0.05;100.00
54270;BME280;40181;51.560;13.000;2023-03-11T05:06:30;99149.78;;;0.12;100.00
54270;BME280;40181;51.560;13.000;2023-03-11T05:08:59;99147.97;;;0.08;100.00
54270;BME280;40181;51.560;13.000;2023-03-11T05:11:28;99157.81;;;0.20;100.00
54270;BME280;40181;51.560;13.000;2023-03-11T05:14:00;99170.38;;;0.09;100.00
54270;BME280;40181;51.560;13.000;2023-03-11T05:16:29;99178.94;;;0.08;100.00
54270;BME280;40181;51.560;13.000;2023-03-11T05:18:58;99178.88;;;0.06;100.00
54270;BME280;40181;51.560;13.000;2023-03-11T05:21:47;99188.13;;;-0.01;100.00
54270;BME280;40181;51.560;13.000;2023-03-11T05:24:16;99200.69;;;0.15;100.00
54270;BME280;40181;51.560;13.000;2023-03-11T05:26:45;99186.53;;;0.03;100.00
54270;BME280;40181;51.560;13.000;2023-03-11T05:29:16;99204.81;;;0.09;100.00
54270;BME280;40181;51.560;13.000;2023-03-11T05:31:45;99197.25;;;0.16;100.00
54270;BME280;40181;51.560;13.000;2023-03-11T05:34:15;99203.03;;;0.08;100.00
54270;BME280;40181;51.560;13.000;2023-03-11T05:36:44;99216.84;;;0.09;100.00
54270;BME280;40181;51.560;13.000;2023-03-11T05:39:13;99224.75;;;0.13;100.00
54270;BME280;40181;51.560;13.000;2023-03-11T05:41:42;99234.69;;;0.03;100.00
54270;BME280;40181;51.560;13.000;2023-03-11T05:44:11;99232.41;;;0.10;100.00
54270;BME280;40181;51.560;13.000;2023-03-11T05:46:42;99245.88;;;0.02;100.00
54270;BME280;40181;51.560;13.000;2023-03-11T05:49:11;99243.88;;;0.19;100.00
54270;BME280;40181;51.560;13.000;2023-03-11T05:51:40;99247.06;;;0.11;100.00
54270;BME280;40181;51.560;13.000;2023-03-11T05:54:09;99259.84;;;0.08;100.00
54270;BME280;40181;51.560;13.000;2023-03-11T05:56:39;99266.13;;;0.15;100.00
54270;BME280;40181;51.560;13.000;2023-03-11T05:59:10;99262.19;;;0.01;100.00
54270;BME280;40181;51.560;13.000;2023-03-11T06:01:40;99273.00;;;0.15;100.00
54270;BME280;40181;51.560;13.000;2023-03-11T06:04:11;99271.00;;;0.07;100.00
54270;BME280;40181;51.560;13.000;2023-03-11T06:06:40;99267.28;;;-0.01;100.00
54270;BME280;40181;51.560;13.000;2023-03-11T06:09:10;99287.41;;;0.08;100.00
54270;BME280;40181;51.560;13.000;2023-03-11T06:11:41;99293.16;;;0.01;100.00
54270;BME280;40181;51.560;13.000;2023-03-11T06:14:10;99300.81;;;-0.03;100.00
54270;BME280;40181;51.560;13.000;2023-03-11T06:16:42;99303.59;;;0.04;99.78
54270;BME280;40181;51.560;13.000;2023-03-11T06:19:11;99304.41;;;0.01;99.87
54270;BME280;40181;51.560;13.000;2023-03-11T06:21:40;99313.28;;;0.09;100.00
54270;BME280;40181;51.560;13.000;2023-03-11T06:24:09;99319.59;;;-0.07;99.28
54270;BME280;40181;51.560;13.000;2023-03-11T06:26:38;99327.00;;;0.08;99.88
54270;BME280;40181;51.560;13.000;2023-03-11T06:29:08;99330.97;;;0.23;99.94
54270;BME280;40181;51.560;13.000;2023-03-11T06:31:43;99336.31;;;0.03;99.72
54270;BME280;40181;51.560;13.000;2023-03-11T06:34:12;99340.03;;;0.11;99.11
54270;BME280;40181;51.560;13.000;2023-03-11T06:36:43;99345.22;;;0.11;98.34
54270;BME280;40181;51.560;13.000;2023-03-11T06:39:13;99361.53;;;0.10;99.14
54270;BME280;40181;51.560;13.000;2023-03-11T06:41:42;99355.09;;;0.23;98.39
54270;BME280;40181;51.560;13.000;2023-03-11T06:44:11;99362.53;;;0.14;98.11
54270;BME280;40181;51.560;13.000;2023-03-11T06:46:43;99376.31;;;0.15;98.00
54270;BME280;40181;51.560;13.000;2023-03-11T06:49:14;99374.72;;;0.18;98.19
54270;BME280;40181;51.560;13.000;2023-03-11T06:51:43;99393.78;;;0.22;97.84
54270;BME280;40181;51.560;13.000;2023-03-11T06:54:12;99389.31;;;0.18;97.92
54270;BME280;40181;51.560;13.000;2023-03-11T06:56:41;99399.72;;;0.19;97.07
54270;BME280;40181;51.560;13.000;2023-03-11T06:59:10;99403.78;;;0.12;97.63
54270;BME280;40181;51.560;13.000;2023-03-11T07:01:39;99412.28;;;0.10;97.36
54270;BME280;40181;51.560;13.000;2023-03-11T07:04:10;99412.88;;;0.25;97.50
54270;BME280;40181;51.560;13.000;2023-03-11T07:06:40;99432.53;;;0.22;98.11
54270;BME280;40181;51.560;13.000;2023-03-11T07:09:09;99437.81;;;0.25;97.99
54270;BME280;40181;51.560;13.000;2023-03-11T07:11:38;99438.22;;;0.13;98.98
54270;BME280;40181;51.560;13.000;2023-03-11T07:14:07;99447.38;;;0.27;98.82
54270;BME280;40181;51.560;13.000;2023-03-11T07:16:37;99456.81;;;0.27;98.76
54270;BME280;40181;51.560;13.000;2023-03-11T07:19:09;99469.19;;;0.11;98.73
54270;BME280;40181;51.560;13.000;2023-03-11T07:21:41;99469.44;;;0.19;99.04
54270;BME280;40181;51.560;13.000;2023-03-11T07:24:11;99478.66;;;0.35;99.87
54270;BME280;40181;51.560;13.000;2023-03-11T07:26:40;99477.19;;;0.19;99.42
54270;BME280;40181;51.560;13.000;2023-03-11T07:29:09;99484.78;;;0.37;99.69
54270;BME280;40181;51.560;13.000;2023-03-11T07:31:38;99497.28;;;0.26;99.95
54270;BME280;40181;51.560;13.000;2023-03-11T07:34:12;99502.88;;;0.37;100.00
54270;BME280;40181;51.560;13.000;2023-03-11T07:36:41;99512.53;;;0.20;100.00
54270;BME280;40181;51.560;13.000;2023-03-11T07:39:11;99502.56;;;0.30;100.00
54270;BME280;40181;51.560;13.000;2023-03-11T07:41:41;99512.84;;;0.28;100.00
54270;BME280;40181;51.560;13.000;2023-03-11T07:44:11;99536.31;;;0.34;100.00
54270;BME280;40181;51.560;13.000;2023-03-11T07:46:40;99523.28;;;0.31;100.00
54270;BME280;40181;51.560;13.000;2023-03-11T07:49:12;99528.88;;;0.42;100.00
54270;BME280;40181;51.560;13.000;2023-03-11T07:51:41;99527.06;;;0.39;100.00
54270;BME280;40181;51.560;13.000;2023-03-11T07:54:10;99531.72;;;0.27;100.00
54270;BME280;40181;51.560;13.000;2023-03-11T07:56:39;99541.19;;;0.26;100.00
54270;BME280;40181;51.560;13.000;2023-03-11T07:59:08;99549.38;;;0.37;100.00
54270;BME280;40181;51.560;13.000;2023-03-11T08:01:37;99556.41;;;0.19;100.00
54270;BME280;40181;51.560;13.000;2023-03-11T08:04:14;99546.13;;;0.20;100.00
54270;BME280;40181;51.560;13.000;2023-03-11T08:06:44;99547.47;;;0.33;100.00
54270;BME280;40181;51.560;13.000;2023-03-11T08:09:13;99553.00;;;0.43;100.00
54270;BME280;40181;51.560;13.000;2023-03-11T08:11:42;99567.59;;;0.19;100.00
54270;BME280;40181;51.560;13.000;2023-03-11T08:14:11;99573.28;;;0.32;100.00
54270;BME280;40181;51.560;13.000;2023-03-11T08:16:40;99575.25;;;0.39;100.00
54270;BME280;40181;51.560;13.000;2023-03-11T08:19:09;99590.94;;;0.21;100.00
54270;BME280;40181;51.560;13.000;2023-03-11T08:21:41;99595.69;;;0.33;100.00
54270;BME280;40181;51.560;13.000;2023-03-11T08:24:10;99593.13;;;0.33;100.00
54270;BME280;40181;51.560;13.000;2023-03-11T08:26:40;99599.16;;;0.33;100.00
54270;BME280;40181;51.560;13.000;2023-03-11T08:29:09;99600.88;;;0.33;100.00
54270;BME280;40181;51.560;13.000;2023-03-11T08:31:38;99607.31;;;0.44;100.00
54270;BME280;40181;51.560;13.000;2023-03-11T08:34:08;99624.16;;;0.34;100.00
54270;BME280;40181;51.560;13.000;2023-03-11T08:36:37;99631.09;;;0.35;100.00
54270;BME280;40181;51.560;13.000;2023-03-11T08:39:09;99628.41;;;0.32;100.00
54270;BME280;40181;51.560;13.000;2023-03-11T08:41:38;99636.72;;;0.25;100.00
54270;BME280;40181;51.560;13.000;2023-03-11T08:44:07;99631.91;;;0.34;100.00
54270;BME280;40181;51.560;13.000;2023-03-11T08:46:37;99636.16;;;0.32;100.00
54270;BME280;40181;51.560;13.000;2023-03-11T08:49:06;99643.41;;;0.20;100.00
54270;BME280;40181;51.560;13.000;2023-03-11T08:51:35;99646.59;;;0.35;100.00
54270;BME280;40181;51.560;13.000;2023-03-11T08:54:04;99646.03;;;0.43;100.00
54270;BME280;40181;51.560;13.000;2023-03-11T08:56:36;99655.25;;;0.36;100.00
54270;BME280;40181;51.560;13.000;2023-03-11T08:59:05;99660.38;;;0.57;99.61
54270;BME280;40181;51.560;13.000;2023-03-11T09:01:34;99667.06;;;0.52;99.52
54270;BME280;40181;51.560;13.000;2023-03-11T09:04:03;99672.91;;;0.69;98.92
54270;BME280;40181;51.560;13.000;2023-03-11T09:06:32;99677.91;;;0.64;98.62
54270;BME280;40181;51.560;13.000;2023-03-11T09:09:01;99699.53;;;0.45;98.80
54270;BME280;40181;51.560;13.000;2023-03-11T09:11:30;99689.28;;;0.47;97.65
54270;BME280;40181;51.560;13.000;2023-03-11T09:14:04;99688.72;;;0.77;97.38
54270;BME280;40181;51.560;13.000;2023-03-11T09:16:33;99698.97;;;0.52;97.82
54270;BME280;40181;51.560;13.000;2023-03-11T09:19:02;99698.50;;;0.63;97.42
54270;BME280;40181;51.560;13.000;2023-03-11T09:21:31;99703.56;;;0.60;97.90
54270;BME280;40181;51.560;13.000;2023-03-11T09:24:00;99710.78;;;0.68;97.65
54270;BME280;40181;51.560;13.000;2023-03-11T09:26:30;99705.91;;;0.53;97.42
54270;BME280;40181;51.560;13.000;2023-03-11T09:29:00;99713.72;;;0.55;96.41
54270;BME280;40181;51.560;13.000;2023-03-11T09:31:32;99720.50;;;0.53;97.04
54270;BME280;40181;51.560;13.000;2023-03-11T09:34:02;99725.50;;;0.48;97.48
54270;BME280;40181;51.560;13.000;2023-03-11T09:36:31;99729.66;;;0.45;98.20
54270;BME280;40181;51.560;13.000;2023-03-11T09:39:00;99736.34;;;0.61;98.11
54270;BME280;40181;51.560;13.000;2023-03-11T09:41:32;99740.75;;;0.63;98.75
54270;BME280;40181;51.560;13.000;2023-03-11T09:44:13;99740.63;;;0.60;97.79
54270;BME280;40181;51.560;13.000;2023-03-11T09:50:05;99739.88;;;0.63;97.34
54270;BME280;40181;51.560;13.000;2023-03-11T09:52:51;99749.06;;;0.77;96.88
54270;BME280;40181;51.560;13.000;2023-03-11T09:55:30;99751.13;;;0.86;96.06
54270;BME280;40181;51.560;13.000;2023-03-11T09:58:03;99761.53;;;0.88;96.21
54270;BME280;40181;51.560;13.000;2023-03-11T10:00:41;99772.38;;;0.79;94.86
54270;BME280;40181;51.560;13.000;2023-03-11T10:03:17;99770.59;;;0.99;96.01
54270;BME280;40181;51.560;13.000;2023-03-11T10:05:53;99773.66;;;0.89;95.71
54270;BME280;40181;51.560;13.000;2023-03-11T10:08:29;99773.31;;;0.81;94.96
54270;BME280;40181;51.560;13.000;2023-03-11T10:11:03;99782.22;;;0.88;92.80
54270;BME280;40181;51.560;13.000;2023-03-11T10:13:44;99784.13;;;1.15;89.21
54270;BME280;40181;51.560;13.000;2023-03-11T10:16:26;99790.34;;;1.20;88.66
54270;BME280;40181;51.560;13.000;2023-03-11T10:19:02;99791.84;;;1.13;89.09
54270;BME280;40181;51.560;13.000;2023-03-11T10:21:40;99795.50;;;1.18;90.58
54270;BME280;40181;51.560;13.000;2023-03-11T10:24:30;99807.72;;;1.22;89.81
54270;BME280;40181;51.560;13.000;2023-03-11T10:27:07;99806.41;;;1.34;91.03
54270;BME280;40181;51.560;13.000;2023-03-11T10:29:40;99806.25;;;1.29;89.68
54270;BME280;40181;51.560;13.000;2023-03-11T10:32:18;99810.47;;;1.27;88.55
54270;BME280;40181;51.560;13.000;2023-03-11T10:34:50;99814.38;;;1.61;90.04
54270;BME280;40181;51.560;13.000;2023-03-11T10:37:22;99818.28;;;1.51;89.81
54270;BME280;40181;51.560;13.000;2023-03-11T10:39:53;99828.53;;;1.26;86.69
54270;BME280;40181;51.560;13.000;2023-03-11T10:42:24;99816.84;;;1.35;86.61
54270;BME280;40181;51.560;13.000;2023-03-11T10:44:54;99812.25;;;1.51;88.17
54270;BME280;40181;51.560;13.000;2023-03-11T10:47:25;99819.97;;;1.27;87.53
54270;BME280;40181;51.560;13.000;2023-03-11T10:49:56;99844.75;;;1.21;88.64
54270;BME280;40181;51.560;13.000;2023-03-11T10:52:25;99834.34;;;1.20;87.66
54270;BME280;40181;51.560;13.000;2023-03-11T10:54:58;99857.91;;;1.05;86.54
54270;BME280;40181;51.560;13.000;2023-03-11T10:57:28;99843.31;;;1.07;86.58
54270;BME280;40181;51.560;13.000;2023-03-11T11:00:00;99842.28;;;1.02;86.26
54270;BME280;40181;51.560;13.000;2023-03-11T11:02:39;99860.66;;;1.09;85.68
54270;BME280;40181;51.560;13.000;2023-03-11T11:05:26;99840.91;;;1.12;86.32
54270;BME280;40181;51.560;13.000;2023-03-11T11:08:04;99848.69;;;1.12;86.43
54270;BME280;40181;51.560;13.000;2023-03-11T11:10:34;99848.81;;;0.93;86.18
54270;BME280;40181;51.560;13.000;2023-03-11T11:13:14;99855.25;;;1.03;87.34
54270;BME280;40181;51.560;13.000;2023-03-11T11:15:55;99846.72;;;1.06;88.43
54270;BME280;40181;51.560;13.000;2023-03-11T11:18:30;99861.03;;;1.19;88.18
54270;BME280;40181;51.560;13.000;2023-03-11T11:21:02;99847.47;;;1.24;88.02
54270;BME280;40181;51.560;13.000;2023-03-11T11:23:40;99862.16;;;1.26;88.23
54270;BME280;40181;51.560;13.000;2023-03-11T11:26:14;99853.72;;;1.30;87.52
54270;BME280;40181;51.560;13.000;2023-03-11T11:28:44;99855.16;;;1.44;87.92
54270;BME280;40181;51.560;13.000;2023-03-11T11:31:22;99858.59;;;1.45;87.51
54270;BME280;40181;51.560;13.000;2023-03-11T11:33:55;99860.91;;;1.37;88.96
54270;BME280;40181;51.560;13.000;2023-03-11T11:36:26;99861.66;;;1.34;89.39
54270;BME280;40181;51.560;13.000;2023-03-11T11:38:57;99863.59;;;1.40;88.51
54270;BME280;40181;51.560;13.000;2023-03-11T11:41:29;99864.50;;;1.41;88.85
54270;BME280;40181;51.560;13.000;2023-03-11T11:44:01;99883.66;;;1.23;88.15
54270;BME280;40181;51.560;13.000;2023-03-11T11:46:33;99880.53;;;1.10;88.24
54270;BME280;40181;51.560;13.000;2023-03-11T11:49:10;99872.19;;;1.39;88.07
54270;BME280;40181;51.560;13.000;2023-03-11T11:51:45;99874.72;;;1.37;87.80
54270;BME280;40181;51.560;13.000;2023-03-11T11:54:20;99892.66;;;1.33;85.53
54270;BME280;40181;51.560;13.000;2023-03-11T11:56:55;99889.94;;;1.30;86.25
54270;BME280;40181;51.560;13.000;2023-03-11T11:59:24;99895.00;;;1.27;85.43
54270;BME280;40181;51.560;13.000;2023-03-11T12:01:56;99886.53;;;1.09;85.57
54270;BME280;40181;51.560;13.000;2023-03-11T12:07:32;99890.28;;;1.60;82.76
54270;BME280;40181;51.560;13.000;2023-03-11T12:10:13;99888.34;;;1.55;82.78
54270;BME280;40181;51.560;13.000;2023-03-11T12:12:47;99884.72;;;1.74;81.61
54270;BME280;40181;51.560;13.000;2023-03-11T12:15:24;99886.50;;;1.98;82.71
54270;BME280;40181;51.560;13.000;2023-03-11T12:17:57;99881.75;;;2.10;81.64
54270;BME280;40181;51.560;13.000;2023-03-11T12:20:32;99878.47;;;2.39;82.05
54270;BME280;40181;51.560;13.000;2023-03-11T12:26:00;99876.97;;;2.45;80.19
54270;BME280;40181;51.560;13.000;2023-03-11T12:28:38;99866.91;;;2.55;78.83
54270;BME280;40181;51.560;13.000;2023-03-11T12:31:09;99866.31;;;2.88;76.24
54270;BME280;40181;51.560;13.000;2023-03-11T12:33:39;99865.22;;;2.55;75.81
54270;BME280;40181;51.560;13.000;2023-03-11T12:36:22;99865.72;;;2.45;76.04
54270;BME280;40181;51.560;13.000;2023-03-11T12:38:56;99875.03;;;2.40;75.56
54270;BME280;40181;51.560;13.000;2023-03-11T12:41:26;99873.22;;;2.37;76.29
54270;BME280;40181;51.560;13.000;2023-03-11T12:44:03;99878.50;;;2.16;75.51
54270;BME280;40181;51.560;13.000;2023-03-11T12:53:02;99882.38;;;2.27;74.27
54270;BME280;40181;51.560;13.000;2023-03-11T12:55:32;99886.56;;;2.24;72.48
54270;BME280;40181;51.560;13.000;2023-03-11T12:58:18;99885.16;;;2.32;71.34
54270;BME280;40181;51.560;13.000;2023-03-11T13:01:23;99889.66;;;2.38;70.48
54270;BME280;40181;51.560;13.000;2023-03-11T13:04:03;99882.72;;;2.37;71.73
54270;BME280;40181;51.560;13.000;2023-03-11T13:06:52;99904.47;;;2.17;72.13
54270;BME280;40181;51.560;13.000;2023-03-11T13:09:44;99902.78;;;1.95;72.34
54270;BME280;40181;51.560;13.000;2023-03-11T13:17:59;99911.06;;;2.07;73.78
54270;BME280;40181;51.560;13.000;2023-03-11T13:20:41;99907.25;;;2.22;73.01
54270;BME280;40181;51.560;13.000;2023-03-11T13:23:20;99920.34;;;2.02;74.85
54270;BME280;40181;51.560;13.000;2023-03-11T13:26:04;99923.09;;;2.07;75.96
54270;BME280;40181;51.560;13.000;2023-03-11T13:28:50;99921.53;;;2.11;77.38
54270;BME280;40181;51.560;13.000;2023-03-11T13:31:50;99930.53;;;1.98;76.68
54270;BME280;40181;51.560;13.000;2023-03-11T13:34:29;99928.72;;;1.95;76.23
54270;BME280;40181;51.560;13.000;2023-03-11T13:37:11;99931.94;;;1.89;76.70
54270;BME280;40181;51.560;13.000;2023-03-11T13:39:52;99933.88;;;2.18;77.93
54270;BME280;40181;51.560;13.000;2023-03-11T13:42:32;99938.50;;;2.27;79.09